Time;durP1;ratioP1;P1;durP2;ratioP2;P2;SDS_P1;SDS_P2;PMS_P1;PMS_P2;Temp;Humidity;BMP_temperature;BMP_pressure;BME280_temperature;BME280_humidity;BME280_pressure;Samples;Min_cycle;Max_cycle;Signal;HPM_P1;HPM_P2
2022/06/03 00:01:06;;;;;;;0.68;0.60;;;21.40;76.00;;;;;;5115650;28;19911;-54
2022/06/03 00:03:50;;;;;;;1.25;0.47;;;21.40;76.60;;;;;;5115490;28;20051;-55
2022/06/03 00:06:34;;;;;;;1.25;0.75;;;21.50;76.30;;;;;;5115512;28;20036;-54
2022/06/03 00:09:00;;;;;;;0.70;0.70;;;;;;;;;;5115461;28;20032;-55
2022/06/03 00:11:42;;;;;;;0.60;0.55;;;21.40;76.70;;;;;;5115382;28;20041;-53
2022/06/03 00:14:08;;;;;;;0.47;0.45;;;;;;;;;;5115395;28;20028;-55
2022/06/03 00:17:04;;;;;;;0.63;0.40;;;21.40;76.20;;;;;;5115249;28;20119;-56
2022/06/03 00:20:09;;;;;;;0.65;0.50;;;21.40;76.20;;;;;;5115297;28;20019;-55
2022/06/03 00:22:56;;;;;;;0.80;0.60;;;21.60;75.80;;;;;;5115292;28;20031;-55
2022/06/03 00:25:48;;;;;;;1.08;0.60;;;21.50;74.30;;;;;;5115463;28;20095;-55
2022/06/03 00:28:28;;;;;;;0.50;0.50;;;21.40;73.80;;;;;;5115072;28;20043;-55
2022/06/03 00:30:54;;;;;;;;;;;21.50;74.70;;;;;;5115510;28;20031;-55
2022/06/03 00:33:36;;;;;;;2.13;0.80;;;21.40;73.70;;;;;;5115048;28;19904;-54
2022/06/03 00:36:02;;;;;;;2.92;0.47;;;;;;;;;;5114964;28;20107;-55
2022/06/03 00:38:42;;;;;;;0.60;0.40;;;21.40;74.20;;;;;;5114898;28;20023;-54
2022/06/03 00:41:40;;;;;;;0.60;0.40;;;21.40;74.00;;;;;;5113732;28;20019;-55
2022/06/03 00:44:29;;;;;;;3.22;0.82;;;21.30;73.80;;;;;;5114787;28;20057;-54
2022/06/03 00:47:32;;;;;;;0.50;0.50;;;21.30;73.80;;;;;;5114683;28;20062;-55
2022/06/03 00:50:19;;;;;;;0.50;0.50;;;21.30;73.80;;;;;;5114676;28;20032;-51
2022/06/03 00:52:45;;;;;;;0.65;0.50;;;;;;;;;;5114625;28;20110;-53
2022/06/03 00:55:48;;;;;;;1.75;0.60;;;21.60;73.60;;;;;;5114563;28;20397;-53
2022/06/03 00:58:23;;;;;;;0.73;0.73;;;21.30;73.30;;;;;;5114582;28;20032;-54
2022/06/03 01:01:10;;;;;;;0.90;0.60;;;21.40;73.30;;;;;;5114459;28;20046;-54
2022/06/03 01:04:03;;;;;;;0.60;0.60;;;21.30;79.00;;;;;;5114256;28;20058;-53
2022/06/03 01:06:38;;;;;;;0.57;0.57;;;21.40;73.10;;;;;;5114493;28;20072;-53
2022/06/03 01:09:25;;;;;;;1.65;0.57;;;21.30;73.50;;;;;;5114310;28;20069;-55
2022/06/03 01:11:51;;;;;;;0.60;0.50;;;;;;;;;;5114369;28;20036;-55
2022/06/03 01:14:17;;;;;;;0.70;0.60;;;;;;;;;;5114263;28;20077;-53
2022/06/03 01:16:51;;;;;;;0.57;0.50;;;21.30;73.40;;;;;;5114362;28;20031;-55
2022/06/03 01:19:38;;;;;;;0.77;0.63;;;21.40;79.00;;;;;;5114416;28;20367;-53
2022/06/03 01:22:06;;;;;;;1.13;0.60;;;21.30;73.50;;;;;;5114011;28;20090;-54
2022/06/03 01:24:32;;;;;;;0.52;0.52;;;;;;;;;;5114041;28;20126;-52
2022/06/03 01:27:13;;;;;;;0.50;0.50;;;21.30;73.40;;;;;;5113857;28;20035;-55
2022/06/03 01:30:06;;;;;;;1.42;0.90;;;21.30;73.40;;;;;;5113858;28;20044;-55
2022/06/03 01:32:32;;;;;;;0.75;0.70;;;;;;;;;;5113953;28;20023;-54
2022/06/03 01:35:36;;;;;;;1.08;0.70;;;21.30;73.20;;;;;;5113765;28;20111;-55
2022/06/03 01:38:10;;;;;;;0.88;0.60;;;21.30;73.40;;;;;;5113580;28;20032;-54
2022/06/03 01:41:03;;;;;;;0.70;0.70;;;21.30;73.50;;;;;;5113639;28;20099;-55
2022/06/03 01:44:25;;;;;;;0.65;0.65;;;21.30;73.60;;;;;;5113747;28;20027;-55
2022/06/03 01:47:24;;;;;;;0.57;0.57;;;21.20;73.50;;;;;;5011029;28;20026;-55
2022/06/03 01:49:50;;;;;;;1.08;0.60;;;;;;;;;;5011026;28;20112;-55
2022/06/03 01:53:12;;;;;;;0.77;0.50;;;21.20;73.50;;;;;;5094635;28;20126;-55
2022/06/03 01:56:02;;;;;;;0.75;0.75;;;21.00;73.50;;;;;;5074538;28;20058;-54
2022/06/03 01:59:04;;;;;;;1.00;0.80;;;21.10;73.50;;;;;;5113677;28;20019;-52
2022/06/03 02:01:50;;;;;;;0.70;0.70;;;21.20;73.70;;;;;;5065857;28;20051;-55
2022/06/03 02:04:54;;;;;;;0.85;0.60;;;21.20;79.30;;;;;;5113235;28;20078;-55
2022/06/03 02:07:41;;;;;;;0.65;0.65;;;21.30;73.90;;;;;;5113368;28;20032;-55
2022/06/03 02:10:44;;;;;;;0.95;0.60;;;21.20;73.90;;;;;;5113427;28;20383;-54
2022/06/03 02:13:15;;;;;;;0.57;0.57;;;21.20;73.80;;;;;;5113138;28;20016;-56
2022/06/03 02:15:41;;;;;;;0.55;0.55;;;;;;;;;;5113112;28;20027;-53
2022/06/03 02:18:37;;;;;;;0.70;0.70;;;21.20;73.80;;;;;;5112953;28;20034;-55
2022/06/03 02:21:28;;;;;;;0.82;0.82;;;21.30;79.80;;;;;;5113252;28;20437;-53
2022/06/03 02:24:05;;;;;;;1.30;0.88;;;21.20;74.20;;;;;;5112981;28;20023;-54
2022/06/03 02:26:49;;;;;;;0.52;0.52;;;21.30;74.10;;;;;;5112967;28;20054;-55
2022/06/03 02:33:11;;;;;;;1.75;0.68;;;21.20;73.90;;;;;;5113242;28;20390;-54
2022/06/03 02:36:02;;;;;;;1.05;0.70;;;21.20;73.80;;;;;;5112861;28;20032;-55
2022/06/03 02:38:47;;;;;;;1.70;1.08;;;21.00;73.40;;;;;;5112685;28;20107;-55
2022/06/03 02:41:42;;;;;;;1.45;0.98;;;21.10;73.60;;;;;;5112551;28;20109;-55
2022/06/03 02:44:31;;;;;;;0.68;0.68;;;20.90;73.50;;;;;;5112635;28;20482;-55
2022/06/03 02:46:59;;;;;;;0.73;0.50;;;21.10;73.60;;;;;;5094424;28;20020;-53
2022/06/03 02:49:34;;;;;;;2.58;0.80;;;21.10;73.40;;;;;;5112517;28;20043;-55
2022/06/03 02:52:00;;;;;;;1.48;0.70;;;;;;;;;;5112635;28;20537;-54
2022/06/03 02:55:09;;;;;;;2.03;0.70;;;21.10;78.80;;;;;;5112523;28;20099;-56
2022/06/03 02:58:11;;;;;;;0.90;0.75;;;21.10;72.90;;;;;;5076692;28;20112;-55
2022/06/03 03:01:02;;;;;;;0.95;0.60;;;21.20;72.60;;;;;;5112804;28;20508;-55
2022/06/03 03:03:48;;;;;;;0.80;0.80;;;21.10;72.40;;;;;;5112508;28;20051;-53
2022/06/03 03:06:48;;;;;;;0.80;0.70;;;21.10;72.20;;;;;;5116815;28;20063;-55
2022/06/03 03:09:35;;;;;;;0.80;0.80;;;21.10;72.30;;;;;;5116991;28;20123;-53
2022/06/03 03:12:16;;;;;;;0.70;0.70;;;21.10;72.30;;;;;;5116718;28;20470;-55
2022/06/03 03:14:42;;;;;;;1.20;1.10;;;;;;;;;;5116608;28;20027;-53
2022/06/03 03:17:42;;;;;;;1.05;0.80;;;21.20;72.60;;;;;;5116563;28;20378;-53
2022/06/03 03:20:08;;;;;;;0.82;0.70;;;;;;;;;;5116792;28;20042;-56
2022/06/03 03:23:15;;;;;;;0.68;0.68;;;21.10;72.60;;;;;;5116361;28;20020;-55
2022/06/03 03:26:04;;;;;;;0.82;0.82;;;21.00;72.50;;;;;;5062683;28;20044;-55
2022/06/03 03:28:44;;;;;;;1.20;0.80;;;21.10;72.60;;;;;;5116183;28;20023;-54
2022/06/03 03:31:32;;;;;;;;;;;21.10;73.50;;;;;;5116726;28;20038;-55
2022/06/03 03:33:58;;;;;;;0.90;0.63;;;;;;;;;;5116243;28;20328;-53
2022/06/03 03:37:01;;;;;;;1.10;0.80;;;21.00;72.30;;;;;;5116389;28;20023;-52
2022/06/03 03:40:03;;;;;;;1.60;0.85;;;21.00;72.60;;;;;;5116053;28;20107;-56
2022/06/03 03:43:06;;;;;;;0.70;0.70;;;21.00;72.50;;;;;;5112298;28;20084;-54
2022/06/03 03:46:09;;;;;;;1.08;0.90;;;21.00;72.40;;;;;;5115946;28;20036;-54
2022/06/03 03:49:06;;;;;;;1.42;0.70;;;21.00;72.50;;;;;;5078568;28;20482;-54
2022/06/03 03:52:05;;;;;;;3.80;0.90;;;21.00;72.70;;;;;;5115853;28;20024;-56
2022/06/03 03:55:08;;;;;;;0.60;0.60;;;20.90;72.50;;;;;;5115765;28;20028;-54
2022/06/03 03:57:34;;;;;;;0.50;0.50;;;;;;;;;;5115617;28;20073;-55
2022/06/03 04:00:36;;;;;;;1.15;0.88;;;21.00;72.50;;;;;;5115688;28;20059;-53
2022/06/03 04:03:27;;;;;;;0.68;0.68;;;21.00;78.20;;;;;;5115561;28;20104;-56
2022/06/03 04:06:18;;;;;;;0.70;0.70;;;20.70;72.90;;;;;;5115620;28;20639;-54
2022/06/03 04:09:22;;;;;;;1.45;0.73;;;22.40;73.80;;;;;;5115735;28;20058;-55
2022/06/03 04:11:54;;;;;;;1.27;0.68;;;21.00;78.80;;;;;;5059231;28;20042;-55
2022/06/03 04:14:31;;;;;;;1.05;0.80;;;21.00;73.20;;;;;;5115479;28;20385;-54
2022/06/03 04:17:15;;;;;;;1.75;0.90;;;20.90;73.00;;;;;;5115397;28;20027;-52
2022/06/03 04:19:55;;;;;;;0.98;0.77;;;20.90;73.20;;;;;;5115362;28;20027;-55
2022/06/03 04:22:53;;;;;;;1.60;0.75;;;20.90;73.00;;;;;;5115361;28;20019;-54
2022/06/03 04:25:57;;;;;;;0.90;0.88;;;20.90;73.40;;;;;;5115239;28;20031;-54
2022/06/03 04:28:23;;;;;;;0.90;0.70;;;;;;;;;;5115092;28;20036;-55
2022/06/03 04:31:11;;;;;;;1.73;0.70;;;21.00;79.00;;;;;;5115055;28;20022;-55
2022/06/03 04:33:55;;;;;;;1.73;0.73;;;20.90;73.40;;;;;;5115083;28;20028;-55
2022/06/03 04:36:21;;;;;;;1.58;0.80;;;;;;;;;;5115035;28;20031;-56
2022/06/03 04:39:24;;;;;;;1.05;0.77;;;21.00;73.10;;;;;;5114816;28;20027;-55
2022/06/03 04:42:24;;;;;;;2.95;1.05;;;21.10;73.10;;;;;;5114830;28;20035;-57
2022/06/03 04:45:17;;;;;;;1.25;0.82;;;20.90;73.30;;;;;;5114869;28;20474;-56
2022/06/03 04:48:16;;;;;;;1.83;0.60;;;20.90;73.50;;;;;;5114739;28;20038;-57
2022/06/03 04:51:11;;;;;;;0.70;0.68;;;20.90;73.40;;;;;;5114792;28;20034;-55
2022/06/03 04:54:09;;;;;;;0.73;0.73;;;20.70;73.30;;;;;;5114714;28;20531;-57
2022/06/03 04:57:12;;;;;;;0.85;0.85;;;20.90;73.50;;;;;;5114745;28;20027;-55
2022/06/03 04:59:59;;;;;;;0.80;0.80;;;21.30;73.60;;;;;;5114636;28;20038;-57
2022/06/03 05:03:02;;;;;;;1.52;0.70;;;20.90;73.20;;;;;;5114269;28;20058;-56
2022/06/03 05:05:39;;;;;;;1.80;0.70;;;21.00;73.60;;;;;;5114457;28;20059;-56
2022/06/03 05:08:43;;;;;;;1.42;0.73;;;20.90;73.40;;;;;;5114222;28;20036;-55
2022/06/03 05:11:50;;;;;;;2.35;0.75;;;21.10;73.60;;;;;;5114344;28;20027;-55
2022/06/03 05:14:52;;;;;;;1.55;0.88;;;21.10;73.60;;;;;;5011613;28;20427;-56
2022/06/03 05:17:18;;;;;;;0.80;0.75;;;;;;;;;;5114280;28;20027;-56
2022/06/03 05:20:03;;;;;;;2.80;0.90;;;21.10;78.90;;;;;;5114145;28;20497;-55
2022/06/03 05:22:47;;;;;;;1.60;0.75;;;20.90;73.20;;;;;;5114117;28;20062;-55
2022/06/03 05:25:18;;;;;;;1.90;1.00;;;20.80;73.40;;;;;;5114338;28;20027;-55
2022/06/03 05:27:44;;;;;;;1.83;0.70;;;;;;;;;;5113241;28;20024;-56
2022/06/03 05:30:40;;;;;;;0.90;0.90;;;21.10;73.10;;;;;;5113898;28;20371;-55
2022/06/03 05:33:27;;;;;;;0.70;0.68;;;20.90;72.80;;;;;;5113874;28;20028;-56
2022/06/03 05:36:53;;;;;;;2.75;0.80;;;20.80;72.80;;;;;;5113909;28;20031;-55
2022/06/03 05:39:43;;;;;;;1.17;0.70;;;20.60;73.00;;;;;;5011144;28;20686;-55
2022/06/03 05:42:27;;;;;;;1.15;0.70;;;20.80;73.30;;;;;;5109260;28;20431;-55
2022/06/03 05:45:20;;;;;;;1.05;0.82;;;20.90;73.40;;;;;;5113622;28;20016;-56
2022/06/03 05:48:04;;;;;;;1.05;0.70;;;20.90;79.10;;;;;;5113516;28;20032;-55
2022/06/03 05:50:30;;;;;;;1.15;0.77;;;;;;;;;;5113839;28;20443;-58
2022/06/03 05:53:38;;;;;;;1.25;0.80;;;20.90;73.40;;;;;;5113473;28;20063;-55
2022/06/03 05:56:41;;;;;;;0.70;0.70;;;21.20;73.40;;;;;;5113611;28;20038;-59
2022/06/03 05:59:17;;;;;;;1.02;0.93;;;20.90;73.70;;;;;;5113491;28;20034;-59
2022/06/03 06:01:44;;;;;;;2.15;0.90;;;;;;;;;;5113316;28;20179;-59
2022/06/03 06:04:10;;;;;;;2.47;1.00;;;;;;;;;;5112996;28;20059;-60
2022/06/03 06:07:07;;;;;;;1.30;0.90;;;21.00;74.00;;;;;;5113262;28;20492;-59
2022/06/03 06:09:34;;;;;;;2.33;0.90;;;;;;;;;;5113162;28;20042;-60
2022/06/03 06:12:22;;;;;;;1.33;1.02;;;20.90;74.30;;;;;;5113134;28;20032;-53
2022/06/03 06:15:26;;;;;;;1.70;0.50;;;20.90;74.60;;;;;;5113061;28;20102;-54
2022/06/03 06:18:20;;;;;;;0.75;0.75;;;20.90;75.10;;;;;;5113137;28;20027;-52
2022/06/03 06:20:58;;;;;;;0.88;0.70;;;20.90;74.50;;;;;;5113028;28;20482;-51
2022/06/03 06:23:29;;;;;;;0.80;0.70;;;20.90;74.70;;;;;;5112892;28;20055;-52
2022/06/03 06:26:22;;;;;;;2.13;0.82;;;20.90;74.60;;;;;;5113051;28;20455;-50
2022/06/03 06:29:02;;;;;;;1.23;0.68;;;20.90;74.50;;;;;;5112763;28;20035;-54
2022/06/03 06:31:42;;;;;;;1.05;0.65;;;20.90;74.70;;;;;;5112799;28;20030;-52
2022/06/03 06:34:30;;;;;;;0.40;0.40;;;20.70;74.60;;;;;;5112615;28;20054;-52
2022/06/03 06:37:17;;;;;;;1.10;0.88;;;21.00;74.90;;;;;;5112744;28;20032;-52
2022/06/03 06:39:43;;;;;;;1.35;0.93;;;;;;;;;;5112152;28;20031;-54
2022/06/03 06:42:09;;;;;;;1.38;0.77;;;;;;;;;;5112548;28;20035;-53
2022/06/03 06:44:50;;;;;;;1.63;1.08;;;21.00;80.80;;;;;;5112616;28;20024;-55
2022/06/03 06:47:37;;;;;;;1.73;0.88;;;21.00;75.20;;;;;;5112566;28;20028;-55
2022/06/03 06:50:40;;;;;;;0.80;0.80;;;21.00;75.10;;;;;;5112754;28;20144;-54
2022/06/03 06:53:14;;;;;;;2.85;0.77;;;20.90;75.80;;;;;;5112572;28;20032;-52
2022/06/03 06:55:52;;;;;;;1.33;0.85;;;20.90;74.60;;;;;;5112480;28;20084;-54
2022/06/03 06:58:21;;;;;;;1.98;0.68;;;20.90;74.40;;;;;;5112759;28;20020;-52
2022/06/03 07:00:49;;;;;;;2.10;0.75;;;20.80;81.00;;;;;;5112437;28;20059;-54
2022/06/03 07:03:15;;;;;;;2.45;1.00;;;;;;;;;;5111774;28;20158;-54
2022/06/03 07:05:41;;;;;;;0.98;0.60;;;;;;;;;;5112108;28;20513;-51
2022/06/03 07:08:32;;;;;;;1.13;0.77;;;21.10;75.50;;;;;;5112390;28;20526;-54
2022/06/03 07:11:20;;;;;;;1.67;0.98;;;21.40;81.40;;;;;;5112371;28;20039;-52
2022/06/03 07:14:10;;;;;;;0.95;0.80;;;20.90;75.50;;;;;;5112284;28;20590;-51
2022/06/03 07:20:27;;;;;;;1.88;0.70;;;21.20;75.10;;;;;;5112684;28;20034;-51
2022/06/03 07:22:55;;;;;;;1.33;0.98;;;;;;;;;;5112332;28;20035;-52
2022/06/03 07:25:37;;;;;;;1.77;0.63;;;21.00;75.60;;;;;;5112296;28;20161;-53
2022/06/03 07:28:29;;;;;;;1.33;0.70;;;21.00;75.30;;;;;;5112072;28;20024;-53
2022/06/03 07:31:07;;;;;;;2.67;0.60;;;21.00;81.30;;;;;;5112336;28;20043;-50
2022/06/03 07:33:33;;;;;;;1.25;1.00;;;;;;;;;;5112205;28;20019;-54
2022/06/03 07:36:10;;;;;;;1.98;0.68;;;21.00;75.30;;;;;;5112130;28;20035;-52
2022/06/03 07:38:54;;;;;;;1.10;1.00;;;21.00;75.10;;;;;;5112388;28;20024;-52
2022/06/03 07:41:38;;;;;;;0.93;0.75;;;21.00;75.80;;;;;;5112055;28;20024;-52
2022/06/03 07:44:21;;;;;;;2.13;0.80;;;21.20;75.70;;;;;;5112242;28;20115;-53
2022/06/03 07:46:54;;;;;;;1.65;1.00;;;21.00;75.70;;;;;;5112343;28;20020;-52
2022/06/03 07:49:22;;;;;;;0.98;0.70;;;20.90;81.10;;;;;;5112005;28;20089;-52
2022/06/03 07:51:53;;;;;;;1.67;0.85;;;21.10;81.50;;;;;;5115756;28;20057;-52
2022/06/03 07:54:19;;;;;;;1.33;0.90;;;;;;;;;;5115781;28;20047;-51
2022/06/03 07:56:45;;;;;;;0.68;0.60;;;;;;;;;;5115637;28;20475;-52
2022/06/03 07:59:17;;;;;;;1.15;0.80;;;21.00;76.10;;;;;;5115595;28;20053;-53
2022/06/03 08:01:55;;;;;;;2.95;1.00;;;21.10;81.70;;;;;;5115553;28;20035;-51
2022/06/03 08:04:34;;;;;;;1.13;0.80;;;21.30;76.40;;;;;;5115611;28;20448;-51
2022/06/03 08:12:36;;;;;;;1.48;0.45;;;21.20;82.50;;;;;;5115725;28;20426;-53
2022/06/03 08:15:30;;;;;;;1.77;0.88;;;21.10;76.70;;;;;;5115417;28;20059;-51
2022/06/03 08:17:56;;;;;;;1.75;0.88;;;;;;;;;;5111650;28;20066;-52
2022/06/03 08:20:25;;;;;;;1.23;0.82;;;21.10;81.90;;;;;;5115442;28;20035;-51
2022/06/03 08:22:51;;;;;;;0.90;0.70;;;;;;;;;;5115224;28;20020;-50
2022/06/03 08:25:29;;;;;;;1.15;0.98;;;21.20;82.10;;;;;;5115177;28;20028;-51
2022/06/03 08:27:57;;;;;;;1.25;0.65;;;21.10;82.00;;;;;;5115027;28;20059;-53
2022/06/03 08:30:25;;;;;;;0.80;0.80;;;21.20;82.60;;;;;;5115312;28;20050;-53
2022/06/03 08:33:10;;;;;;;1.08;0.63;;;21.10;82.10;;;;;;5114988;28;20107;-50
2022/06/03 08:35:41;;;;;;;1.75;0.63;;;21.20;82.20;;;;;;5115277;28;20445;-51
2022/06/03 08:38:21;;;;;;;1.15;0.70;;;21.20;76.50;;;;;;5115068;28;20030;-53
2022/06/03 08:41:08;;;;;;;0.90;0.73;;;21.20;76.40;;;;;;5114957;28;20023;-53
2022/06/03 08:44:01;;;;;;;0.60;0.60;;;21.20;76.40;;;;;;5114772;28;20035;-55
2022/06/03 08:46:34;;;;;;;0.88;0.88;;;21.30;82.00;;;;;;5114831;28;20436;-50
2022/06/03 08:49:03;;;;;;;4.32;1.08;;;21.30;81.90;;;;;;5114484;28;20514;-54
2022/06/03 08:51:42;;;;;;;1.58;0.93;;;21.30;76.20;;;;;;5114447;28;20021;-52
2022/06/03 08:54:29;;;;;;;1.40;0.90;;;21.40;76.30;;;;;;5114501;28;20047;-51
2022/06/03 08:57:04;;;;;;;0.77;0.50;;;21.40;81.70;;;;;;5114294;28;20040;-53
2022/06/03 09:00:05;;;;;;;1.13;0.65;;;21.50;75.90;;;;;;5114433;28;20024;-54
2022/06/03 09:02:39;;;;;;;0.70;0.60;;;21.40;75.80;;;;;;5112990;28;20028;-53
2022/06/03 09:05:10;;;;;;;1.00;0.90;;;21.50;81.40;;;;;;5114507;28;20038;-54
2022/06/03 09:07:59;;;;;;;1.10;0.68;;;21.50;75.80;;;;;;5114211;28;20024;-55
2022/06/03 09:10:31;;;;;;;0.50;0.50;;;21.60;81.30;;;;;;5114162;28;20042;-53
2022/06/03 09:13:20;;;;;;;0.73;0.70;;;21.60;75.40;;;;;;5114047;28;20047;-50
2022/06/03 09:15:48;;;;;;;1.05;0.50;;;21.60;78.90;;;;;;5114067;28;20462;-53
2022/06/03 09:18:55;;;;;;;1.63;0.55;;;21.60;81.20;;;;;;5114045;28;20027;-50
2022/06/03 09:21:26;;;;;;;2.10;0.80;;;21.70;81.40;;;;;;5011257;28;20157;-50
2022/06/03 09:24:05;;;;;;;0.60;0.60;;;21.70;75.80;;;;;;5011122;28;20030;-51
2022/06/03 09:26:38;;;;;;;0.75;0.60;;;21.80;81.50;;;;;;5071414;28;20067;-53
2022/06/03 09:29:06;;;;;;;0.90;0.50;;;21.60;81.10;;;;;;5113562;28;20474;-52
2022/06/03 09:31:32;;;;;;;1.23;0.47;;;;;;;;;;5113650;28;20031;-51
2022/06/03 09:33:59;;;;;;;0.77;0.47;;;;;;;;;;5113666;28;20097;-51
2022/06/03 09:36:26;;;;;;;1.33;0.77;;;21.90;79.00;;;;;;5113581;28;20038;-52
2022/06/03 09:38:57;;;;;;;0.95;0.75;;;21.90;81.20;;;;;;5113906;28;20359;-51
2022/06/03 09:41:26;;;;;;;0.95;0.60;;;22.00;81.30;;;;;;5113713;28;20110;-51
2022/06/03 09:43:55;;;;;;;0.65;0.30;;;21.90;81.10;;;;;;5113533;28;20055;-53
2022/06/03 09:46:24;;;;;;;1.58;0.80;;;22.00;81.10;;;;;;5113414;28;20024;-51
2022/06/03 09:48:51;;;;;;;1.88;0.50;;;;;;;;;;5113706;28;20424;-51
2022/06/03 09:54:09;;;;;;;25.65;2.00;;;;;;;;;;5113673;28;20123;-54
2022/06/03 09:56:35;;;;;;;2.58;0.85;;;;;;;;;;5113462;28;20051;-51
2022/06/03 09:59:02;;;;;;;0.90;0.60;;;22.20;80.90;;;;;;5113304;28;20031;-53
2022/06/03 10:01:29;;;;;;;3.00;0.80;;;22.20;80.80;;;;;;5113162;28;20055;-54
2022/06/03 10:04:00;;;;;;;1.83;0.80;;;22.30;80.80;;;;;;5113152;28;20393;-51
2022/06/03 10:18:01;;;;;;;3.15;1.10;;;22.30;80.80;;;;;;5113444;28;20030;-53
2022/06/03 10:20:27;;;;;;;4.43;0.80;;;;;;;;;;5113010;28;20061;-55
2022/06/03 10:22:53;;;;;;;1.23;0.80;;;;;;;;;;5113116;28;20038;-55
2022/06/03 10:25:19;;;;;;;0.73;0.40;;;;;;;;;;5112926;28;20034;-54
2022/06/03 10:27:45;;;;;;;4.88;0.88;;;22.40;77.20;;;;;;5112812;28;20043;-54
2022/06/03 10:30:12;;;;;;;8.07;1.00;;;22.40;79.50;;;;;;5113161;28;20028;-51
2022/06/03 10:32:38;;;;;;;2.65;0.75;;;;;;;;;;5112848;28;20020;-52
2022/06/03 10:35:06;;;;;;;2.25;0.90;;;22.40;80.40;;;;;;5112855;28;20474;-53
2022/06/03 10:37:34;;;;;;;1.13;0.77;;;;;;;;;;5112881;28;20022;-55
2022/06/03 10:40:00;;;;;;;0.70;0.50;;;;;;;;;;5112765;28;20035;-54
2022/06/03 10:42:26;;;;;;;2.88;0.60;;;;;;;;;;5112634;28;20435;-54
2022/06/03 10:44:57;;;;;;;0.77;0.60;;;22.60;73.90;;;;;;5112713;28;20034;-54
2022/06/03 10:47:35;;;;;;;2.75;0.77;;;22.50;79.50;;;;;;5112800;28;20024;-55
2022/06/03 10:50:05;;;;;;;3.83;0.73;;;22.60;79.60;;;;;;5112799;28;20027;-51
2022/06/03 11:01:24;;;;;;;2.97;0.95;;;22.70;73.80;;;;;;5112628;28;20039;-55
2022/06/03 11:03:52;;;;;;;2.83;0.70;;;22.70;79.50;;;;;;5112395;28;20054;-55
2022/06/03 11:06:23;;;;;;;2.78;0.90;;;22.70;79.60;;;;;;5112463;28;20020;-55
2022/06/03 11:09:00;;;;;;;1.02;0.40;;;22.80;80.00;;;;;;5112672;28;20042;-55
2022/06/03 11:11:43;;;;;;;4.43;0.80;;;22.80;74.20;;;;;;5112462;28;20024;-55
2022/06/03 11:14:39;;;;;;;1.85;0.82;;;22.80;74.00;;;;;;5112394;28;20084;-56
2022/06/03 11:17:05;;;;;;;0.95;0.70;;;;;;;;;;5110491;28;20044;-56
2022/06/03 11:19:35;;;;;;;1.60;0.70;;;22.80;79.80;;;;;;5094129;28;20520;-55
2022/06/03 11:22:19;;;;;;;4.18;0.95;;;22.80;74.10;;;;;;5112607;28;20031;-53
2022/06/03 11:24:55;;;;;;;2.65;0.80;;;22.90;79.70;;;;;;5113295;28;20054;-56
2022/06/03 11:27:34;;;;;;;0.50;0.50;;;22.90;79.90;;;;;;5116387;28;20026;-55
2022/06/03 11:30:10;;;;;;;1.40;0.65;;;22.80;79.80;;;;;;5116296;28;20114;-55
2022/06/03 11:32:37;;;;;;;1.13;0.80;;;22.90;78.60;;;;;;5116250;28;20024;-56
2022/06/03 11:35:14;;;;;;;1.58;0.80;;;22.70;73.90;;;;;;5116289;28;20474;-56
2022/06/03 11:37:44;;;;;;;0.85;0.50;;;23.00;79.80;;;;;;5116208;28;20050;-55
2022/06/03 11:40:24;;;;;;;1.48;0.60;;;23.00;74.00;;;;;;5116229;28;20020;-56
2022/06/03 11:43:20;;;;;;;2.45;0.50;;;22.90;73.90;;;;;;5097981;28;20072;-55
2022/06/03 11:45:51;;;;;;;1.23;0.75;;;22.90;79.60;;;;;;5116038;28;20103;-56
2022/06/03 11:48:17;;;;;;;1.58;0.98;;;;;;;;;;5115972;28;20062;-55
2022/06/03 11:50:43;;;;;;;3.35;1.00;;;;;;;;;;5115880;28;20028;-55
2022/06/03 11:53:09;;;;;;;0.73;0.50;;;;;;;;;;5115920;28;20039;-55
2022/06/03 11:55:38;;;;;;;1.05;0.57;;;22.90;79.90;;;;;;5115937;28;20080;-52
2022/06/03 11:58:09;;;;;;;1.55;0.70;;;23.10;74.00;;;;;;5115804;28;20028;-52
2022/06/03 12:00:45;;;;;;;2.20;0.80;;;23.00;79.80;;;;;;5115663;28;20042;-53
2022/06/03 12:03:11;;;;;;;1.65;0.73;;;;;;;;;;5115523;28;20051;-54
2022/06/03 12:05:45;;;;;;;2.03;0.70;;;23.40;79.70;;;;;;5115619;28;20423;-54
2022/06/03 12:08:26;;;;;;;0.70;0.70;;;23.10;73.90;;;;;;5115533;28;20024;-56
2022/06/03 12:13:14;;;;;;;1.80;0.75;;;23.10;73.70;;;;;;5115467;28;20035;-56
2022/06/03 12:14:18;;;;;;;0.65;0.60;;;23.20;73.70;;;;;;5115327;28;20035;-55
2022/06/03 12:17:13;;;;;;;1.23;0.52;;;23.20;73.70;;;;;;5115293;28;20023;-55
2022/06/03 12:19:45;;;;;;;3.90;0.70;;;23.30;73.80;;;;;;5093396;28;20553;-55
2022/06/03 12:22:29;;;;;;;1.15;0.60;;;23.20;73.50;;;;;;5115351;28;20032;-57
2022/06/03 12:24:56;;;;;;;1.40;0.65;;;23.20;78.90;;;;;;5115200;28;20031;-56
2022/06/03 12:27:26;;;;;;;1.20;0.63;;;23.20;79.10;;;;;;5115064;28;20110;-56
2022/06/03 12:30:01;;;;;;;1.10;0.60;;;23.20;73.20;;;;;;5115149;28;20066;-56
2022/06/03 12:32:28;;;;;;;1.35;0.63;;;23.20;78.60;;;;;;5115077;28;20028;-56
2022/06/03 12:35:31;;;;;;;1.05;0.60;;;23.20;72.90;;;;;;5115052;28;20042;-55
2022/06/03 12:38:20;;;;;;;2.72;0.70;;;23.40;73.20;;;;;;5115338;28;20534;-55
2022/06/03 12:40:47;;;;;;;0.95;0.82;;;23.30;78.80;;;;;;5114793;28;20031;-56
2022/06/03 12:43:28;;;;;;;0.95;0.70;;;23.20;72.80;;;;;;5114932;28;20379;-54
2022/06/03 12:45:58;;;;;;;1.40;0.70;;;23.20;72.90;;;;;;5114755;28;20028;-53
2022/06/03 12:48:36;;;;;;;1.15;0.68;;;23.40;72.90;;;;;;5114702;28;20509;-55
2022/06/03 12:51:20;;;;;;;1.52;0.73;;;23.20;72.70;;;;;;5114920;28;20046;-52
2022/06/03 12:53:48;;;;;;;2.13;0.80;;;23.10;78.60;;;;;;5114627;28;20132;-55
2022/06/03 12:56:48;;;;;;;1.08;0.60;;;22.90;72.50;;;;;;5114524;28;20501;-54
2022/06/03 12:59:45;;;;;;;1.02;0.77;;;23.20;73.10;;;;;;5114696;28;20140;-55
2022/06/03 13:02:35;;;;;;;2.30;0.73;;;23.10;78.80;;;;;;5114247;28;20501;-54
2022/06/03 13:05:01;;;;;;;1.75;0.50;;;;;;;;;;5114189;28;20116;-56
2022/06/03 13:07:27;;;;;;;1.85;0.55;;;;;;;;;;5114299;28;20052;-55
2022/06/03 13:10:23;;;;;;;1.83;0.63;;;23.20;72.80;;;;;;5114190;28;20040;-54
2022/06/03 13:12:53;;;;;;;0.80;0.50;;;23.20;78.60;;;;;;5114429;28;20042;-53
2022/06/03 13:15:22;;;;;;;0.65;0.57;;;23.20;72.60;;;;;;5114436;28;20103;-57
2022/06/03 13:20:49;;;;;;;0.65;0.65;;;23.20;72.50;;;;;;5114568;28;20039;-54
2022/06/03 13:23:37;;;;;;;1.75;0.82;;;23.20;72.60;;;;;;5114134;28;20031;-55
2022/06/03 13:26:21;;;;;;;1.60;0.50;;;23.20;72.20;;;;;;5113943;28;20038;-55
2022/06/03 13:29:02;;;;;;;1.48;0.60;;;23.20;72.20;;;;;;5113895;28;20027;-56
2022/06/03 13:31:30;;;;;;;1.00;0.65;;;;;;;;;;5113961;28;20073;-55
2022/06/03 13:34:12;;;;;;;1.45;0.70;;;23.20;72.20;;;;;;5113689;28;20027;-54
2022/06/03 13:36:38;;;;;;;4.57;0.60;;;;;;;;;;5113861;28;20476;-55
2022/06/03 13:39:06;;;;;;;0.80;0.60;;;23.20;78.40;;;;;;5113762;28;20110;-55
2022/06/03 13:44:40;;;;;;;;;;;23.20;73.70;;;;;;5114240;28;20051;-54
2022/06/03 13:47:14;;;;;;;2.25;0.60;;;23.10;72.30;;;;;;5113221;28;20388;-56
2022/06/03 13:49:55;;;;;;;0.73;0.60;;;23.10;72.40;;;;;;5113747;28;20027;-55
2022/06/03 13:52:25;;;;;;;4.38;0.90;;;23.20;78.40;;;;;;5113647;28;20038;-55
2022/06/03 13:54:54;;;;;;;0.73;0.50;;;23.10;78.10;;;;;;5113741;28;20011;-54
2022/06/03 13:57:33;;;;;;;0.88;0.50;;;22.90;72.10;;;;;;5113440;28;20038;-56
2022/06/03 14:00:31;;;;;;;1.05;0.75;;;23.20;72.20;;;;;;5113291;28;20051;-55
2022/06/03 14:03:02;;;;;;;1.25;0.70;;;23.10;72.40;;;;;;5113167;28;20065;-55
2022/06/03 14:05:33;;;;;;;0.77;0.63;;;23.10;72.30;;;;;;5113269;28;20036;-55
2022/06/03 14:08:05;;;;;;;1.10;0.68;;;23.20;78.10;;;;;;5113153;28;20020;-55
2022/06/03 14:10:49;;;;;;;0.60;0.57;;;23.20;78.20;;;;;;5113375;28;20032;-55
2022/06/03 14:13:15;;;;;;;0.90;0.50;;;;;;;;;;5112916;28;20115;-55
2022/06/03 14:16:10;;;;;;;2.90;0.70;;;23.20;72.40;;;;;;5113094;28;20019;-54
2022/06/03 14:18:53;;;;;;;0.77;0.60;;;23.20;72.10;;;;;;5110680;28;20039;-55
2022/06/03 14:21:37;;;;;;;2.50;0.75;;;23.20;72.10;;;;;;5112942;28;20042;-53
2022/06/03 14:24:21;;;;;;;1.60;0.60;;;23.20;77.90;;;;;;5113088;28;20027;-55
2022/06/03 14:26:56;;;;;;;1.17;0.60;;;23.20;77.70;;;;;;5113065;28;20026;-55
2022/06/03 14:29:38;;;;;;;2.78;0.75;;;22.90;71.70;;;;;;5113128;28;20046;-56
2022/06/03 14:32:09;;;;;;;0.57;0.55;;;23.20;77.40;;;;;;5112940;28;20023;-56
2022/06/03 14:34:44;;;;;;;1.05;0.73;;;23.20;71.80;;;;;;5112992;28;20030;-55
2022/06/03 14:37:19;;;;;;;2.08;0.70;;;23.20;72.00;;;;;;5112748;28;20034;-56
2022/06/03 14:39:46;;;;;;;2.33;0.65;;;23.30;77.80;;;;;;5112918;28;20111;-55
2022/06/03 14:42:25;;;;;;;0.93;0.70;;;23.30;77.70;;;;;;5112969;28;20028;-55
2022/06/03 14:44:52;;;;;;;1.88;0.70;;;;;;;;;;5112808;28;20073;-55
2022/06/03 14:47:30;;;;;;;2.95;1.00;;;23.20;71.90;;;;;;5113010;28;20084;-55
2022/06/03 14:50:14;;;;;;;1.48;0.60;;;23.10;71.70;;;;;;5112536;28;20032;-56
2022/06/03 14:52:55;;;;;;;2.25;0.68;;;23.10;71.70;;;;;;5112547;28;20076;-56
2022/06/03 14:55:29;;;;;;;0.60;0.60;;;23.20;77.90;;;;;;5112678;28;20023;-56
2022/06/03 14:57:55;;;;;;;1.13;0.70;;;;;;;;;;5112233;28;20118;-55